Time;durP1;ratioP1;P1;durP2;ratioP2;P2;SDS_P1;SDS_P2;PMS_P1;PMS_P2;Temp;Humidity;BMP_temperature;BMP_pressure;BME280_temperature;BME280_humidity;BME280_pressure;Samples;Min_cycle;Max_cycle;Signal;HPM_P1;HPM_P2
2022/01/25 00:32:24;;;;;;;10.53;6.17;;;;;;;1.25;100.00;100956.75;10501148;28;20040;-79
2022/01/25 00:37:25;;;;;;;11.88;6.45;;;;;;;0.09;100.00;100760.59;10500886;28;20041;-80
2022/01/25 00:42:25;;;;;;;14.05;6.13;;;;;;;0.37;100.00;100784.16;10500957;28;20428;-80
2022/01/25 00:47:26;;;;;;;9.82;6.00;;;;;;;0.08;100.00;100741.47;10501179;28;20565;-80
2022/01/25 00:57:46;;;;;;;11.45;6.60;;;;;;;0.83;100.00;100832.84;10501170;28;20043;-79
2022/01/25 01:02:47;;;;;;;11.05;6.68;;;;;;;1.34;99.80;100912.50;10499879;28;20139;-79
2022/01/25 01:07:48;;;;;;;11.90;6.13;;;;;;;1.31;100.00;100909.25;10499249;28;20032;-79
2022/01/25 01:34:19;;;;;;;12.80;6.97;;;;;;;0.90;100.00;100868.16;10499238;28;20040;-80
2022/01/25 01:44:40;;;;;;;11.95;6.50;;;;;;;0.13;100.00;100802.13;10498187;28;20496;-79
2022/01/25 01:49:43;;;;;;;17.23;10.27;;;;;;;-0.62;100.00;100716.88;10498540;28;20047;-79
2022/01/25 01:54:44;;;;;;;12.63;7.73;;;;;;;0.38;100.00;100871.25;10528655;28;20044;-79
2022/01/25 01:59:45;;;;;;;11.25;6.93;;;;;;;0.01;100.00;100828.13;10540060;28;20036;-78
2022/01/25 02:04:48;;;;;;;11.57;6.65;;;;;;;0.40;100.00;100916.44;10539231;28;20135;-79
2022/01/25 02:09:49;;;;;;;14.43;7.90;;;;;;;-0.18;100.00;100816.16;10538775;28;20058;-80
2022/01/25 02:14:51;;;;;;;21.85;11.25;;;;;;;-0.07;100.00;100812.91;10538397;28;20130;-80
2022/01/25 02:25:30;;;;;;;14.73;8.45;;;;;;;0.76;100.00;100970.97;10538598;28;20036;-80
2022/01/25 02:30:30;;;;;;;14.60;7.95;;;;;;;0.97;100.00;101017.75;10538753;28;20480;-80
2022/01/25 02:35:32;;;;;;;17.88;8.55;;;;;;;0.32;100.00;100916.03;10538192;28;20074;-80
2022/01/25 02:40:33;;;;;;;13.30;7.28;;;;;;;0.30;100.00;100937.03;10538579;28;20563;-79
2022/01/25 02:45:36;;;;;;;14.20;8.48;;;;;;;0.05;100.00;100892.31;10538170;28;20126;-79
2022/01/25 02:50:36;;;;;;;13.68;8.68;;;;;;;0.06;100.00;100894.00;10538560;28;20097;-80
2022/01/25 02:55:41;;;;;;;11.50;7.00;;;;;;;0.83;100.00;101021.16;10538574;28;20036;-77
2022/01/25 03:00:42;;;;;;;11.07;6.68;;;;;;;0.41;100.00;100989.53;10536688;28;20044;-79
2022/01/25 03:05:44;;;;;;;12.18;7.28;;;;;;;0.70;100.00;101036.72;10536517;28;20108;-81
2022/01/25 03:10:46;;;;;;;11.23;7.05;;;;;;;0.61;100.00;101055.53;10537311;28;20059;-81
2022/01/25 03:20:52;;;;;;;11.43;7.53;;;;;;;0.04;100.00;100982.91;10535891;28;20448;-82
2022/01/25 03:25:53;;;;;;;16.55;8.15;;;;;;;-0.13;100.00;100972.53;10528835;28;20048;-78
2022/01/25 03:30:53;;;;;;;13.75;8.20;;;;;;;0.44;100.00;101065.16;10541263;28;20061;-80
2022/01/25 03:35:54;;;;;;;16.17;8.77;;;;;;;0.04;100.00;101013.41;10545562;28;20376;-82
2022/01/25 03:40:55;;;;;;;13.82;8.77;;;;;;;0.54;100.00;101094.25;10539705;28;20412;-80
2022/01/25 03:46:08;;;;;;;15.25;9.35;;;;;;;-0.55;100.00;100922.56;10535654;28;20518;-83
2022/01/25 03:51:09;;;;;;;14.82;8.68;;;;;;;-0.66;100.00;100901.44;10534278;28;20055;-83
2022/01/25 03:56:10;;;;;;;16.73;8.50;;;;;;;0.25;100.00;101053.22;10538883;28;20047;-82
2022/01/25 04:01:11;;;;;;;19.17;10.73;;;;;;;-0.82;100.00;100867.50;10504769;28;20108;-83
2022/01/25 04:06:18;;;;;;;81.55;38.72;;;;;;;-1.81;100.00;100711.19;10501968;28;20041;-83
2022/01/25 04:11:19;;;;;;;20.58;12.05;;;;;;;0.59;100.00;101094.81;10501511;28;20040;-76
2022/01/25 04:16:25;;;;;;;19.50;11.27;;;;;;;0.64;100.00;101092.81;10502381;28;20392;-78
2022/01/25 04:26:29;;;;;;;18.47;11.27;;;;;;;0.50;100.00;101078.81;10501426;28;20503;-77
2022/01/25 04:31:30;;;;;;;18.10;10.93;;;;;;;0.62;100.00;101112.13;10501108;28;20040;-79
2022/01/25 04:52:22;;;;;;;15.18;9.20;;;;;;;0.58;100.00;101108.00;10500426;28;20083;-83
2022/01/25 04:57:41;;;;;;;;;;;;;;;0.90;100.00;101138.44;10500255;28;20040;-83
2022/01/25 05:03:22;;;;;;;15.70;8.70;;;;;;;-0.33;100.00;100953.59;10497720;28;20277;-83
2022/01/25 05:14:13;;;;;;;14.70;8.95;;;;;;;0.82;100.00;101164.16;10500935;28;20458;-83
2022/01/25 05:19:09;;;;;;;15.55;9.07;;;;;;;-0.28;100.00;100982.88;10496884;28;20058;-83
2022/01/25 05:24:10;;;;;;;16.25;9.88;;;;;;;0.26;100.00;101081.84;10498221;28;20042;-83
2022/01/25 05:29:11;;;;;;;16.80;9.32;;;;;;;0.48;100.00;101102.44;10498846;28;20144;-84
2022/01/25 05:34:12;;;;;;;15.90;9.57;;;;;;;0.93;100.00;101167.94;10498160;28;20047;-84
2022/01/25 05:39:20;;;;;;;17.58;10.15;;;;;;;-0.40;100.00;100944.41;10499035;28;20095;-83
2022/01/25 05:44:41;;;;;;;15.55;10.25;;;;;;;0.90;100.00;101189.91;10498365;28;20044;-83
2022/01/25 05:49:43;;;;;;;18.73;11.13;;;;;;;0.78;100.00;101182.72;10498244;28;20044;-84
2022/01/25 05:54:44;;;;;;;22.65;13.07;;;;;;;-0.03;100.00;101060.78;10497625;28;20516;-84
2022/01/25 05:59:45;;;;;;;22.52;12.48;;;;;;;0.64;100.00;101192.16;10497711;28;20139;-84
2022/01/25 06:04:46;;;;;;;23.17;12.75;;;;;;;0.72;100.00;101198.75;10497561;28;20127;-84
2022/01/25 06:09:49;;;;;;;22.27;12.90;;;;;;;0.32;100.00;101144.22;10497902;28;20048;-83
2022/01/25 06:14:50;;;;;;;19.90;12.32;;;;;;;0.07;100.00;101107.31;10497971;28;20399;-83
2022/01/25 06:19:51;;;;;;;31.42;18.35;;;;;;;-0.10;100.00;101072.47;10496868;28;20066;-84
2022/01/25 06:24:53;;;;;;;24.15;14.23;;;;;;;0.18;100.00;101118.88;10497344;28;20503;-83
2022/01/25 06:29:53;;;;;;;24.02;12.25;;;;;;;0.69;100.00;101223.31;10497329;28;20033;-84
2022/01/25 06:34:54;;;;;;;18.13;11.35;;;;;;;0.78;100.00;101221.94;10496198;28;20065;-85
2022/01/25 06:39:56;;;;;;;21.70;12.18;;;;;;;0.81;100.00;101211.34;10496903;28;20067;-85
2022/01/25 06:45:00;;;;;;;22.60;11.80;;;;;;;-0.40;100.00;101011.44;10496266;28;20115;-83
2022/01/25 06:50:01;;;;;;;15.77;10.55;;;;;;;0.67;100.00;101205.06;10496341;28;20040;-83
2022/01/25 06:55:02;;;;;;;18.45;11.00;;;;;;;0.74;99.65;101202.13;10496153;28;20044;-84
2022/01/25 07:00:06;;;;;;;17.00;10.48;;;;;;;0.40;99.22;101157.75;10496465;28;20048;-83
2022/01/25 07:05:07;;;;;;;16.70;10.63;;;;;;;0.77;99.71;101218.50;10495668;28;20047;-83
2022/01/25 07:10:09;;;;;;;18.73;11.02;;;;;;;0.25;99.08;101119.38;10493979;28;20040;-83
2022/01/25 07:15:11;;;;;;;15.90;10.13;;;;;;;-0.69;99.31;100990.31;10494519;28;20085;-82
2022/01/25 07:20:12;;;;;;;17.52;10.88;;;;;;;0.63;99.51;101164.34;10494341;28;20399;-83
2022/01/25 07:25:13;;;;;;;18.77;10.35;;;;;;;0.71;98.75;101186.59;10495804;28;20041;-83
2022/01/25 07:30:14;;;;;;;15.57;10.25;;;;;;;0.64;99.78;101175.66;10495947;28;20446;-83
2022/01/25 07:35:15;;;;;;;14.43;9.45;;;;;;;0.19;99.12;101124.94;10494691;28;20190;-83
2022/01/25 07:40:16;;;;;;;14.88;9.70;;;;;;;0.80;99.48;101213.09;10494877;28;20065;-84
2022/01/25 07:45:17;;;;;;;16.13;9.25;;;;;;;0.26;99.22;101113.22;10493984;28;20037;-84
2022/01/25 07:50:18;;;;;;;13.27;7.82;;;;;;;1.12;98.58;101244.50;10493852;28;20036;-83
2022/01/25 07:55:19;;;;;;;14.65;8.88;;;;;;;-0.38;98.91;101022.66;10495549;28;20048;-84
2022/01/25 08:00:21;;;;;;;14.88;9.18;;;;;;;-0.41;99.08;100976.66;10494098;28;20048;-85
2022/01/25 08:05:24;;;;;;;12.68;7.40;;;;;;;0.42;98.34;101089.72;10494248;28;20458;-84
2022/01/25 08:10:25;;;;;;;9.75;6.30;;;;;;;0.63;97.61;101100.75;10493808;28;20139;-86
2022/01/25 08:15:26;;;;;;;10.32;6.80;;;;;;;0.14;97.88;101051.16;10494042;28;20376;-86
2022/01/25 08:20:27;;;;;;;9.02;6.03;;;;;;;1.31;97.21;101232.06;10500774;28;20045;-87
2022/01/25 08:25:28;;;;;;;9.30;6.13;;;;;;;0.71;97.54;101147.38;10500661;28;20040;-86
2022/01/25 08:30:28;;;;;;;10.00;6.97;;;;;;;0.84;98.16;101187.63;10500283;28;20127;-87
2022/01/25 08:35:29;;;;;;;11.88;7.43;;;;;;;-0.03;97.47;100992.88;10500522;28;20040;-87
2022/01/25 08:40:30;;;;;;;11.30;7.93;;;;;;;1.85;97.57;101276.13;10501355;28;20063;-85
2022/01/25 08:45:31;;;;;;;11.45;8.35;;;;;;;1.73;96.30;101229.69;10500884;28;20040;-85
2022/01/25 08:50:32;;;;;;;11.77;8.27;;;;;;;1.41;96.43;101155.59;10499554;28;20139;-83
2022/01/25 08:55:33;;;;;;;15.70;7.78;;;;;;;1.48;95.90;101156.94;10498833;28;20048;-83
2022/01/25 09:00:34;;;;;;;10.45;7.78;;;;;;;1.24;95.02;101088.53;10498432;28;20064;-80
2022/01/25 09:05:37;;;;;;;11.68;8.00;;;;;;;2.02;95.19;101167.69;10498766;28;20306;-80
2022/01/25 09:10:37;;;;;;;12.48;8.68;;;;;;;2.58;94.25;101249.94;10499465;28;20495;-79
2022/01/25 09:15:38;;;;;;;12.05;7.38;;;;;;;1.62;93.86;101075.81;10499548;28;20037;-79
2022/01/25 09:20:39;;;;;;;10.50;7.05;;;;;;;2.69;93.86;101252.75;10499937;28;20036;-80
2022/01/25 09:25:40;;;;;;;10.10;7.57;;;;;;;2.69;93.05;101230.88;10497830;28;20403;-79
2022/01/25 09:30:41;;;;;;;11.05;7.80;;;;;;;0.83;91.84;100908.69;10497509;28;20047;-80
2022/01/25 09:35:42;;;;;;;7.70;6.00;;;;;;;2.63;92.11;101205.91;10497692;28;20036;-79
2022/01/25 09:40:44;;;;;;;10.95;7.30;;;;;;;2.36;91.96;101183.97;10498582;28;20056;-80
2022/01/25 09:45:45;;;;;;;11.27;7.25;;;;;;;0.65;91.66;100880.06;10497156;28;20419;-80
2022/01/25 09:50:47;;;;;;;17.67;7.68;;;;;;;1.99;91.39;101081.41;10513809;28;20178;-80
2022/01/25 09:55:47;;;;;;;9.73;6.50;;;;;;;2.16;91.51;101138.03;10496856;28;20032;-82
2022/01/25 10:00:54;;;;;;;15.02;7.60;;;;;;;2.78;91.69;101227.69;10497827;28;20044;-78
2022/01/25 10:05:58;;;;;;;11.73;7.55;;;;;;;2.62;91.09;101153.50;10496992;28;20037;-78
2022/01/25 10:11:11;;;;;;;12.20;7.75;;;;;;;2.33;90.38;101092.41;10496923;28;20403;-79
2022/01/25 10:16:30;;;;;;;10.43;8.13;;;;;;;3.25;89.71;101226.44;10496653;28;20036;-79
2022/01/25 10:21:39;;;;;;;11.00;7.55;;;;;;;3.11;90.00;101216.84;10497305;28;20058;-80
2022/01/25 10:27:03;;;;;;;15.75;8.10;;;;;;;2.58;90.06;101104.81;10495632;28;20174;-83
2022/01/25 10:32:14;;;;;;;11.73;8.35;;;;;;;3.24;90.31;101208.19;10494843;28;20033;-85
2022/01/25 10:37:19;;;;;;;9.38;7.85;;;;;;;3.29;90.31;101208.69;10496275;28;20407;-82
2022/01/25 10:42:28;;;;;;;11.88;8.70;;;;;;;2.63;89.79;101123.72;10494311;28;20052;-84
2022/01/25 10:47:48;;;;;;;14.23;8.90;;;;;;;2.56;90.27;101073.44;10496506;28;20040;-83
2022/01/25 10:53:07;;;;;;;12.20;8.30;;;;;;;2.06;90.16;100977.88;10496061;28;20082;-80
2022/01/25 10:58:09;;;;;;;12.25;9.02;;;;;;;2.62;89.69;101075.66;10495360;28;20036;-79
2022/01/25 11:03:11;;;;;;;11.35;8.85;;;;;;;3.67;89.98;101246.44;10495402;28;20048;-82
2022/01/25 11:08:14;;;;;;;13.63;9.27;;;;;;;3.44;89.97;101202.47;10495721;28;20094;-80
2022/01/25 11:13:34;;;;;;;12.55;9.57;;;;;;;3.41;89.81;101224.53;10495107;28;20045;-79
2022/01/25 11:18:36;;;;;;;14.60;10.23;;;;;;;3.57;90.00;101265.56;10495529;28;20496;-79
2022/01/25 11:23:40;;;;;;;14.60;10.55;;;;;;;2.48;89.81;101094.91;10494896;28;20159;-79
2022/01/25 11:28:44;;;;;;;15.10;11.57;;;;;;;2.60;89.96;101095.06;10494179;28;20037;-79
2022/01/25 11:33:48;;;;;;;15.43;11.48;;;;;;;3.44;90.35;101234.00;10493779;28;20037;-79
2022/01/25 13:50:39;;;;;;;20.83;12.88;;;;;;;-0.31;88.48;101024.81;10442726;28;20053;-75
2022/01/25 13:55:50;;;;;;;21.10;13.93;;;;;;;1.02;88.77;101280.81;10444292;28;20040;-74
2022/01/25 14:00:53;;;;;;;21.05;14.13;;;;;;;0.99;89.37;101293.19;10441373;28;20136;-74
2022/01/25 14:05:55;;;;;;;20.55;13.70;;;;;;;0.39;89.79;101228.38;10444654;28;20037;-77
2022/01/25 14:10:59;;;;;;;20.35;12.88;;;;;;;-1.80;89.30;100892.56;10459199;28;20070;-74
2022/01/25 14:21:55;;;;;;;17.23;12.07;;;;;;;-0.05;89.76;101286.41;10441980;28;20091;-74
2022/01/25 14:26:58;;;;;;;17.70;11.77;;;;;;;-0.78;90.20;101225.56;10443211;28;20029;-74
2022/01/25 14:32:03;;;;;;;18.52;12.23;;;;;;;-0.56;90.48;101285.44;10443340;28;20409;-73
2022/01/25 14:37:14;;;;;;;21.83;11.85;;;;;;;-0.61;90.54;101293.47;10441675;28;20503;-76
2022/01/25 14:42:14;;;;;;;28.60;10.93;;;;;;;-0.87;90.26;101296.44;10425308;28;20099;-74
2022/01/25 14:47:20;;;;;;;20.27;12.40;;;;;;;-1.91;90.37;101169.13;10423204;28;20091;-73
2022/01/25 14:52:21;;;;;;;21.10;10.98;;;;;;;-2.16;91.20;101171.94;10422603;28;20168;-74
2022/01/25 14:57:26;;;;;;;18.45;10.77;;;;;;;-2.64;90.77;101108.06;10393117;28;20036;-73
2022/01/25 15:02:27;;;;;;;17.58;10.48;;;;;;;-3.58;90.32;100994.16;10394107;28;20042;-73
2022/01/25 15:07:32;;;;;;;19.63;11.27;;;;;;;-2.58;91.38;101170.25;10392183;28;20060;-76
2022/01/25 15:12:43;;;;;;;19.60;11.70;;;;;;;-1.92;90.71;101303.66;10402321;28;20409;-77
2022/01/25 15:17:44;;;;;;;20.35;11.77;;;;;;;-2.10;90.81;101310.47;10400003;28;20053;-75
2022/01/25 15:22:47;;;;;;;18.05;10.75;;;;;;;-2.85;91.13;101204.25;10413457;28;20048;-75
2022/01/25 15:27:50;;;;;;;19.60;11.18;;;;;;;-2.92;91.49;101192.41;10415449;28;20048;-75
2022/01/25 15:32:51;;;;;;;17.75;11.25;;;;;;;-3.39;90.84;101127.56;10432792;28;20049;-75
2022/01/25 15:37:56;;;;;;;22.63;13.18;;;;;;;-3.38;90.77;101168.25;10432859;28;20489;-75
2022/01/25 15:42:57;;;;;;;25.17;14.45;;;;;;;-4.89;90.87;100934.25;10416804;28;20624;-75
2022/01/25 15:47:59;;;;;;;21.80;13.27;;;;;;;-2.86;90.93;101290.97;10417006;28;20140;-75
2022/01/25 15:52:59;;;;;;;19.95;11.85;;;;;;;-3.78;91.36;101166.28;10415811;28;20045;-74
2022/01/25 15:58:00;;;;;;;17.30;10.30;;;;;;;-4.26;91.31;101072.00;10416772;28;20041;-75
2022/01/25 16:03:02;;;;;;;18.55;10.55;;;;;;;-3.37;91.42;101232.28;10431438;28;20444;-74
2022/01/25 16:08:03;;;;;;;17.55;10.10;;;;;;;-4.03;91.80;101111.84;10413599;28;20500;-75
2022/01/25 16:13:05;;;;;;;13.82;9.02;;;;;;;-4.15;90.86;101093.22;10412753;28;20160;-75
2022/01/25 16:18:06;;;;;;;14.35;8.82;;;;;;;-3.04;91.45;101270.88;10399464;28;20052;-73
2022/01/25 16:23:07;;;;;;;15.55;8.40;;;;;;;-3.49;91.72;101194.63;10379277;28;20041;-75
2022/01/25 16:28:09;;;;;;;19.60;10.00;;;;;;;-2.99;91.14;101300.16;10382745;28;20104;-74
2022/01/25 16:33:10;;;;;;;16.83;10.10;;;;;;;-3.76;91.66;101151.50;10411540;28;20052;-74
2022/01/25 16:38:11;;;;;;;20.10;11.68;;;;;;;-3.17;91.84;101228.94;10410366;28;20469;-74
2022/01/25 16:43:12;;;;;;;19.05;10.43;;;;;;;-2.97;91.75;101268.91;10408195;28;20057;-74
2022/01/25 16:48:13;;;;;;;19.88;9.82;;;;;;;-4.31;91.07;101047.13;10407153;28;20065;-74
2022/01/25 16:53:13;;;;;;;17.23;10.15;;;;;;;-4.75;90.40;101024.47;10409273;28;20095;-74
2022/01/25 16:58:14;;;;;;;15.98;8.63;;;;;;;-3.42;90.98;101295.69;10409052;28;20052;-74
2022/01/25 17:03:16;;;;;;;15.02;8.98;;;;;;;-4.32;91.39;101144.84;10404561;28;20052;-74
2022/01/25 17:08:17;;;;;;;14.05;8.77;;;;;;;-4.17;92.05;101133.91;10397290;28;20041;-75
2022/01/25 17:13:19;;;;;;;19.05;11.05;;;;;;;-3.37;91.52;101281.63;10400394;28;20060;-74
2022/01/25 17:18:20;;;;;;;28.17;18.40;;;;;;;-4.49;91.65;101090.13;10406539;28;20107;-74
2022/01/25 17:23:21;;;;;;;30.95;14.60;;;;;;;-4.45;90.97;101107.28;10421548;28;20029;-74
2022/01/25 17:28:22;;;;;;;16.65;9.50;;;;;;;-3.64;90.82;101252.31;10405027;28;20052;-74
2022/01/25 17:33:22;;;;;;;16.33;8.98;;;;;;;-3.91;91.31;101204.81;10402577;28;20037;-74
2022/01/25 17:38:24;;;;;;;19.45;9.48;;;;;;;-4.15;90.95;101173.63;10403969;28;20452;-74
2022/01/25 17:43:25;;;;;;;15.90;9.10;;;;;;;-3.98;91.09;101212.00;10415401;28;20057;-74
2022/01/25 17:48:26;;;;;;;15.75;9.18;;;;;;;-3.99;91.26;101212.03;10388350;28;20057;-73
2022/01/25 17:53:27;;;;;;;15.38;9.00;;;;;;;-3.85;91.39;101235.75;10402693;28;20054;-73
2022/01/25 17:58:28;;;;;;;18.20;9.43;;;;;;;-4.50;91.27;101116.97;10399775;28;20033;-74
2022/01/25 18:03:29;;;;;;;15.27;8.90;;;;;;;-4.29;90.87;101188.00;10426434;28;20049;-73
2022/01/25 18:08:30;;;;;;;16.50;9.05;;;;;;;-4.74;91.25;101121.22;10405409;28;20041;-73
2022/01/25 18:13:31;;;;;;;16.88;9.55;;;;;;;-4.05;91.72;101212.25;10397574;28;20472;-73
2022/01/25 18:18:32;;;;;;;15.93;9.88;;;;;;;-4.88;91.39;101046.53;10385556;28;20095;-73
2022/01/25 18:23:42;;;;;;;18.60;9.68;;;;;;;-5.24;91.37;101022.69;10387951;28;20042;-72
2022/01/25 18:28:44;;;;;;;14.68;8.88;;;;;;;-5.60;91.70;100951.38;10389537;28;20084;-73
2022/01/25 18:33:44;;;;;;;17.92;10.23;;;;;;;-4.52;91.79;101098.84;10417527;28;20048;-73
2022/01/25 18:38:45;;;;;;;14.63;9.15;;;;;;;-4.90;90.83;101041.41;10393526;28;20041;-74
2022/01/25 18:43:46;;;;;;;15.48;9.60;;;;;;;-4.19;91.13;101153.03;10393772;28;20145;-74
2022/01/25 18:48:48;;;;;;;16.23;9.57;;;;;;;-4.18;91.17;101165.97;10392836;28;20072;-74
2022/01/25 18:53:49;;;;;;;14.95;9.30;;;;;;;-3.79;91.14;101235.53;10393820;28;20045;-73
2022/01/25 18:58:50;;;;;;;14.65;9.13;;;;;;;-3.99;91.37;101202.47;10398024;28;20459;-74
2022/01/25 19:03:51;;;;;;;20.10;9.65;;;;;;;-4.00;91.45;101166.22;10394430;28;20041;-74
2022/01/25 19:08:52;;;;;;;22.00;10.43;;;;;;;-4.84;91.27;101009.25;10420386;28;20041;-73
2022/01/25 19:13:54;;;;;;;21.83;11.18;;;;;;;-4.41;91.79;101064.75;10416796;28;20045;-73
2022/01/25 19:18:55;;;;;;;19.40;10.77;;;;;;;-3.51;91.76;101192.97;10417705;28;20045;-74
2022/01/25 19:23:56;;;;;;;18.52;10.85;;;;;;;-4.03;91.70;101088.47;10411549;28;20044;-73
2022/01/25 19:28:56;;;;;;;19.17;10.43;;;;;;;-3.29;91.40;101203.38;10416398;28;20069;-73
2022/01/25 19:33:57;;;;;;;20.75;11.23;;;;;;;-5.45;91.02;100872.34;10414766;28;20045;-74
2022/01/25 19:38:59;;;;;;;17.02;9.98;;;;;;;-3.70;91.24;101138.28;10414585;28;20037;-74
2022/01/25 19:44:01;;;;;;;15.95;10.07;;;;;;;-3.77;91.36;101082.28;10415564;28;20049;-74
2022/01/25 19:49:04;;;;;;;18.75;10.82;;;;;;;-4.03;91.95;101037.41;10412919;28;20044;-73
2022/01/25 19:54:05;;;;;;;16.67;10.32;;;;;;;-2.96;91.92;101183.06;10407979;28;20049;-73
2022/01/25 19:59:07;;;;;;;16.33;8.93;;;;;;;-3.90;91.94;101004.03;10416790;28;20108;-73
2022/01/25 20:04:09;;;;;;;15.93;9.18;;;;;;;-2.97;91.68;101165.75;10417499;28;20497;-74
2022/01/25 20:09:10;;;;;;;20.52;9.80;;;;;;;-3.70;92.06;101037.03;10416796;28;20073;-73
2022/01/25 20:14:11;;;;;;;15.05;9.05;;;;;;;-3.70;91.54;101056.03;10420771;28;20069;-73
2022/01/25 20:19:12;;;;;;;18.27;10.50;;;;;;;-4.17;91.98;100983.44;10416383;28;20128;-73
2022/01/25 20:29:40;;;;;;;13.63;9.23;;;;;;;-3.05;90.82;101176.47;10415738;28;20408;-73
2022/01/25 20:34:44;;;;;;;16.55;9.85;;;;;;;-3.49;91.52;101103.69;10414385;28;20489;-75
2022/01/25 20:39:45;;;;;;;18.85;10.13;;;;;;;-3.10;91.78;101146.38;10414545;28;20489;-73
2022/01/25 20:44:46;;;;;;;18.77;11.35;;;;;;;-4.30;91.57;100937.28;10415001;28;20524;-74
2022/01/25 20:49:47;;;;;;;17.35;10.23;;;;;;;-2.88;91.37;101154.16;10414553;28;20041;-73
2022/01/25 20:54:48;;;;;;;16.20;9.32;;;;;;;-4.54;90.97;100893.22;10412971;28;20215;-73
2022/01/25 20:59:50;;;;;;;16.88;10.07;;;;;;;-4.16;91.55;100960.94;10414805;28;20409;-73
2022/01/25 21:10:11;;;;;;;18.90;11.20;;;;;;;-3.18;91.69;101112.03;10414053;28;20041;-74
2022/01/25 21:15:12;;;;;;;19.85;10.95;;;;;;;-3.89;91.34;101008.31;10413873;28;20489;-73
2022/01/25 21:20:15;;;;;;;21.70;11.18;;;;;;;-2.94;91.88;101150.03;10413584;28;20037;-73
2022/01/25 21:25:17;;;;;;;18.30;11.65;;;;;;;-3.52;92.48;101046.69;10414977;28;20037;-73
2022/01/25 21:30:18;;;;;;;20.25;11.35;;;;;;;-3.85;91.86;100983.94;10413982;28;20091;-74
2022/01/25 21:35:21;;;;;;;19.80;11.40;;;;;;;-3.23;91.39;101094.00;10413298;28;20509;-73
2022/01/25 21:40:22;;;;;;;18.77;11.20;;;;;;;-4.06;91.32;100970.06;10413170;28;20037;-74
2022/01/25 21:45:23;;;;;;;18.92;11.23;;;;;;;-4.56;90.79;100909.75;10411833;28;20061;-73
2022/01/25 21:50:25;;;;;;;20.58;11.90;;;;;;;-3.31;91.75;101138.50;10411895;28;20045;-73
2022/01/25 21:55:31;;;;;;;20.50;11.85;;;;;;;-3.71;90.46;101072.53;10413540;28;20049;-73
2022/01/25 22:00:32;;;;;;;22.58;11.88;;;;;;;-4.80;91.53;100906.31;10412713;28;20076;-73
2022/01/25 22:05:36;;;;;;;20.83;11.07;;;;;;;-3.49;91.22;101103.69;10418951;28;20057;-73
2022/01/25 22:10:45;;;;;;;21.92;12.27;;;;;;;-4.51;91.59;100959.69;10420658;28;20073;-73
2022/01/25 22:15:46;;;;;;;25.73;11.90;;;;;;;-4.40;91.62;100973.06;10420405;28;20501;-74
2022/01/25 22:20:49;;;;;;;20.58;11.30;;;;;;;-3.59;91.48;101127.47;10419779;28;20128;-73
2022/01/25 22:25:52;;;;;;;20.20;11.80;;;;;;;-4.00;91.85;101018.28;10420306;28;20108;-73
2022/01/25 22:30:54;;;;;;;21.58;11.85;;;;;;;-4.14;91.99;100975.53;10420711;28;20049;-73
2022/01/25 22:35:55;;;;;;;20.27;11.35;;;;;;;-5.18;91.85;100821.31;10419456;28;20033;-73
2022/01/25 22:40:56;;;;;;;21.90;11.07;;;;;;;-3.50;91.70;101085.56;10419616;28;20540;-73
2022/01/25 22:45:57;;;;;;;19.55;11.90;;;;;;;-4.35;92.03;100929.66;10419595;28;20045;-73
2022/01/25 22:50:58;;;;;;;18.88;11.07;;;;;;;-4.21;92.15;100958.53;10419873;28;20082;-73
2022/01/25 22:55:59;;;;;;;18.13;10.70;;;;;;;-4.26;91.50;100947.47;10418767;28;20041;-73
2022/01/25 23:01:06;;;;;;;17.27;10.73;;;;;;;-3.68;91.24;101071.53;10419696;28;20041;-74
2022/01/25 23:06:08;;;;;;;17.38;10.35;;;;;;;-5.43;91.41;100802.41;10419091;28;20136;-73
2022/01/25 23:11:10;;;;;;;19.67;10.95;;;;;;;-3.74;92.06;101045.81;10418484;28;20041;-73
2022/01/25 23:16:17;;;;;;;21.52;10.82;;;;;;;-4.53;91.33;100914.81;10417437;28;20420;-73
2022/01/25 23:21:19;;;;;;;19.80;11.35;;;;;;;-3.84;92.00;101045.34;10418895;28;20536;-73
2022/01/25 23:26:22;;;;;;;18.05;10.27;;;;;;;-4.06;91.28;101014.19;10417631;28;20049;-74
2022/01/25 23:31:41;;;;;;;17.67;10.30;;;;;;;-4.67;91.30;100913.56;10417419;28;20120;-73
2022/01/25 23:36:47;;;;;;;23.63;11.30;;;;;;;-4.20;91.30;100991.34;10418099;28;20041;-73
2022/01/25 23:41:52;;;;;;;19.25;10.75;;;;;;;-5.49;91.44;100772.38;10417156;28;20049;-73
2022/01/25 23:46:57;;;;;;;19.77;11.40;;;;;;;-3.62;91.47;101065.28;10417838;28;20045;-73
